METAR AND TAF INFORMATION
METAR FOR AGGK
ADDS - METARS form results

(0441 UTC 26 February 2020)
Data provider http://aviationweather.gov/metar/data/
 
Forecast for: AGGK (KIRAKIRA , SB)
Text: TAF AGGK 252310Z 2600/2624 05010KT 9999 SCT019
Forecast period: 0000 UTC 26 February 2020 to 0000 UTC 27 February 2020
Forecast type: FROM: standard forecast or significant change
Winds: from the NE (50 degrees) at 12 MPH (10 knots; 5.1 m/s)
Visibility: 6 or more miles 10+ km)
Ceiling: at least 12,000 feet AGL
Clouds: scattered clouds at 1900 feet AGL
Weather: no significant weather forecast for this period

 AIRPORT MAP

 RUNWAY INFORMATION
Runway 10 Runway length 4377 ft Runway width 0 ft
Runway elevation 8 ft Runway displaced threshold 0 ft Runway heading 0
Runway 28 Runway length 4377 ft Runway width 0 ft
Runway elevation 7 ft Runway displaced threshold 0 ft Runway heading 0

 AIRPORT FREQUENCIES

 AIRPORT NEAR NAVIGATION AIDS



Powered by Virtual Airlines Manager [v2.6.2]